Time;durP1;ratioP1;P1;durP2;ratioP2;P2;SDS_P1;SDS_P2;PMS_P1;PMS_P2;Temp;Humidity;BMP_temperature;BMP_pressure;BME280_temperature;BME280_humidity;BME280_pressure;Samples;Min_cycle;Max_cycle;Signal;HPM_P1;HPM_P2
2022/09/27 00:00:25;;;;;;;3.33;2.07;;;;;;;9.76;100.00;99067.09;5022280;28;20201;-70
2022/09/27 00:02:52;;;;;;;2.83;2.00;;;;;;;9.79;100.00;99069.53;5023971;28;20228;-70
2022/09/27 00:05:18;;;;;;;2.50;1.77;;;;;;;9.82;100.00;99064.19;5021907;28;20206;-71
2022/09/27 00:07:46;;;;;;;2.93;1.60;;;;;;;9.84;100.00;99062.38;5021618;28;20235;-71
2022/09/27 00:10:13;;;;;;;4.10;1.87;;;;;;;9.85;100.00;99049.28;5020965;28;20203;-71
2022/09/27 00:12:40;;;;;;;5.13;2.23;;;;;;;9.88;100.00;99047.44;5023001;28;20221;-70
2022/09/27 00:15:08;;;;;;;2.10;1.70;;;;;;;9.89;100.00;99044.75;5023561;28;20206;-70
2022/09/27 00:17:36;;;;;;;2.30;2.10;;;;;;;9.88;100.00;99042.22;5021919;28;20230;-70
2022/09/27 00:20:05;;;;;;;2.30;1.90;;;;;;;9.89;100.00;99042.16;5022248;28;20215;-70
2022/09/27 00:22:31;;;;;;;3.10;2.10;;;;;;;9.87;100.00;99036.19;5022971;28;20215;-71
2022/09/27 00:24:59;;;;;;;3.10;2.20;;;;;;;9.87;100.00;99030.97;5021899;28;20207;-70
2022/09/27 00:27:26;;;;;;;3.50;2.20;;;;;;;9.86;100.00;99024.91;5018120;28;20225;-71
2022/09/27 00:29:53;;;;;;;4.23;2.40;;;;;;;9.87;100.00;99020.56;5012314;28;20297;-70
2022/09/27 00:32:20;;;;;;;2.33;2.03;;;;;;;9.88;100.00;99017.03;5022398;28;20296;-70
2022/09/27 00:34:46;;;;;;;2.90;2.10;;;;;;;9.89;100.00;99021.34;5020723;28;20667;-71
2022/09/27 00:37:12;;;;;;;5.37;2.07;;;;;;;9.91;100.00;99013.44;5021988;28;20214;-71
2022/09/27 00:39:39;;;;;;;2.23;2.00;;;;;;;9.90;100.00;99015.19;5020958;28;20443;-70
2022/09/27 00:42:10;;;;;;;2.77;2.00;;;;;;;9.91;100.00;99013.44;5017942;28;20201;-70
2022/09/27 00:45:00;;;;;;;3.13;2.10;;;;;;;9.92;100.00;99007.31;5021427;28;20281;-70
2022/09/27 00:47:42;;;;;;;2.70;2.00;;;;;;;9.93;100.00;99006.41;5008413;28;20222;-71
2022/09/27 00:50:18;;;;;;;4.17;2.20;;;;;;;9.92;100.00;99002.97;5036115;28;20198;-70
2022/09/27 00:52:51;;;;;;;2.37;1.73;;;;;;;9.91;100.00;99001.28;5012419;28;20225;-70
2022/09/27 00:55:23;;;;;;;2.57;1.93;;;;;;;9.90;100.00;99002.19;5016977;28;20581;-70
2022/09/27 00:57:52;;;;;;;1.70;1.60;;;;;;;9.91;100.00;98998.66;5021787;28;20236;-71
2022/09/27 01:00:18;;;;;;;3.03;2.00;;;;;;;9.92;100.00;98999.50;5016295;28;20593;-70
2022/09/27 01:02:49;;;;;;;3.33;2.23;;;;;;;9.90;100.00;98988.31;5032055;28;20217;-70
2022/09/27 01:05:19;;;;;;;2.50;2.07;;;;;;;9.88;100.00;98988.41;5017085;28;20198;-70
2022/09/27 01:07:45;;;;;;;5.33;1.97;;;;;;;9.88;100.00;98988.41;5016289;28;20225;-70
2022/09/27 01:10:13;;;;;;;5.40;2.30;;;;;;;9.87;100.00;98984.13;5018538;28;20704;-70
2022/09/27 01:12:52;;;;;;;2.90;2.20;;;;;;;9.86;100.00;98974.63;5021600;28;20209;-69
2022/09/27 01:15:25;;;;;;;3.43;1.90;;;;;;;9.89;100.00;98969.28;5017222;28;20450;-71
2022/09/27 01:18:07;;;;;;;2.47;2.07;;;;;;;9.87;100.00;98963.31;5020055;28;20604;-70
2022/09/27 01:21:01;;;;;;;2.30;1.80;;;;;;;9.86;100.00;98961.59;5014937;28;20207;-71
2022/09/27 01:23:54;;;;;;;2.77;2.17;;;;;;;9.85;100.00;98957.34;5030602;28;20218;-70
2022/09/27 01:26:36;;;;;;;4.40;2.27;;;;;;;9.85;100.00;98954.72;5014031;28;20314;-70
2022/09/27 01:29:09;;;;;;;2.20;2.00;;;;;;;9.86;100.00;98951.19;5020612;28;20516;-70
2022/09/27 01:31:45;;;;;;;4.60;1.93;;;;;;;9.87;100.00;98945.09;5021001;28;20217;-70
2022/09/27 01:34:21;;;;;;;2.30;2.10;;;;;;;9.86;100.00;98938.19;5015086;28;20205;-70
2022/09/27 01:36:55;;;;;;;2.57;1.97;;;;;;;9.84;100.00;98927.84;5033447;28;20788;-71
2022/09/27 01:39:33;;;;;;;2.37;1.77;;;;;;;9.85;100.00;98931.31;5018171;28;20201;-70
2022/09/27 01:42:24;;;;;;;2.00;1.80;;;;;;;9.87;100.00;98934.66;5019906;28;20280;-70
2022/09/27 01:45:01;;;;;;;2.73;1.70;;;;;;;9.89;100.00;98929.38;5032513;28;20198;-71
2022/09/27 01:47:39;;;;;;;6.83;2.10;;;;;;;9.92;100.00;98930.06;5017407;28;20224;-69
2022/09/27 01:50:37;;;;;;;3.40;2.10;;;;;;;9.96;100.00;98918.56;5018671;28;20586;-70
2022/09/27 01:53:06;;;;;;;5.77;1.90;;;;;;;9.95;100.00;98916.88;5017242;28;20294;-69
2022/09/27 01:55:46;;;;;;;2.07;1.83;;;;;;;10.00;100.00;98917.50;5018319;28;20253;-71
2022/09/27 01:58:42;;;;;;;3.83;1.83;;;;;;;10.04;100.00;98912.97;5020400;28;20580;-70
2022/09/27 02:01:12;;;;;;;1.80;1.60;;;;;;;10.07;100.00;98917.19;5018243;28;20202;-71
2022/09/27 02:03:44;;;;;;;2.83;1.97;;;;;;;10.09;100.00;98912.75;5035126;28;20223;-71
2022/09/27 02:06:34;;;;;;;2.00;1.50;;;;;;;10.10;100.00;98899.66;5031644;23;20386;-72
2022/09/27 02:09:15;;;;;;;4.57;1.77;;;;;;;10.10;100.00;98899.66;5029279;28;20294;-69
2022/09/27 02:12:04;;;;;;;3.30;1.93;;;;;;;10.11;100.00;98897.88;5019933;28;20206;-71
2022/09/27 02:14:37;;;;;;;2.27;1.63;;;;;;;10.10;100.00;98888.41;5020139;28;20191;-71
2022/09/27 02:17:09;;;;;;;2.43;1.60;;;;;;;10.11;100.00;98890.06;5023126;28;20239;-71
2022/09/27 02:19:46;;;;;;;3.23;1.70;;;;;;;10.11;100.00;98879.66;5036553;28;20207;-71
2022/09/27 02:22:20;;;;;;;1.43;1.33;;;;;;;10.12;100.00;98881.34;5051873;28;20671;-71
2022/09/27 02:24:53;;;;;;;1.63;1.47;;;;;;;10.13;100.00;98883.00;5032439;28;20742;-71
2022/09/27 02:27:25;;;;;;;2.07;1.50;;;;;;;10.15;100.00;98882.03;5033125;28;20218;-69
2022/09/27 02:29:58;;;;;;;1.90;1.43;;;;;;;10.17;100.00;98876.75;5036168;28;20232;-71
2022/09/27 02:32:24;;;;;;;2.27;1.67;;;;;;;10.17;100.00;98874.97;5052230;28;20694;-72
2022/09/27 02:34:54;;;;;;;3.13;1.60;;;;;;;10.16;100.00;98872.44;5038157;28;20206;-71
2022/09/27 02:37:21;;;;;;;5.10;1.70;;;;;;;10.18;100.00;98878.41;5035301;28;20226;-72
2022/09/27 02:39:48;;;;;;;3.37;1.60;;;;;;;10.18;100.00;98868.84;5037941;28;20289;-71
2022/09/27 02:42:15;;;;;;;1.90;1.40;;;;;;;10.20;100.00;98867.00;5035105;28;20328;-71
2022/09/27 02:44:43;;;;;;;1.63;1.10;;;;;;;10.23;100.00;98864.22;5035816;28;20222;-70
2022/09/27 02:47:25;;;;;;;1.77;1.43;;;;;;;10.25;100.00;98856.31;5028990;28;20218;-70
2022/09/27 02:50:06;;;;;;;1.53;1.43;;;;;;;10.27;100.00;98857.06;5032075;28;20198;-71
2022/09/27 02:52:55;;;;;;;3.73;1.30;;;;;;;10.28;100.00;98853.56;5039157;28;20205;-71
2022/09/27 02:55:35;;;;;;;1.50;1.40;;;;;;;10.31;100.00;98844.75;5034003;28;20210;-72
2022/09/27 02:58:21;;;;;;;1.47;1.20;;;;;;;10.32;100.00;98844.69;5035518;28;20218;-70
2022/09/27 03:01:15;;;;;;;1.97;1.40;;;;;;;10.33;100.00;98837.72;5035576;28;20623;-71
2022/09/27 03:04:08;;;;;;;2.90;1.50;;;;;;;10.32;100.00;98828.22;5035506;28;20343;-71
2022/09/27 03:06:38;;;;;;;1.27;1.00;;;;;;;10.32;100.00;98834.25;5029791;28;20262;-71
2022/09/27 03:09:04;;;;;;;1.30;1.20;;;;;;;10.31;100.00;98832.59;5032557;28;20206;-70
2022/09/27 03:11:32;;;;;;;1.23;1.07;;;;;;;10.32;100.00;98828.22;5033980;28;20312;-71
2022/09/27 03:13:58;;;;;;;2.27;1.47;;;;;;;10.32;100.00;98823.00;5039430;28;20625;-71
2022/09/27 03:16:25;;;;;;;2.33;1.53;;;;;;;10.31;100.00;98826.53;5030468;28;20419;-71
2022/09/27 03:19:02;;;;;;;1.90;1.23;;;;;;;10.32;100.00;98826.44;5033962;28;20205;-71
2022/09/27 03:21:59;;;;;;;2.20;1.33;;;;;;;10.30;100.00;98822.22;5031075;28;20202;-71
2022/09/27 03:24:25;;;;;;;2.53;1.73;;;;;;;10.29;100.00;98825.75;5031109;28;20214;-71
2022/09/27 03:26:52;;;;;;;2.80;1.23;;;;;;;10.27;100.00;98823.22;5033036;28;20382;-72
2022/09/27 03:29:18;;;;;;;1.63;1.30;;;;;;;10.29;100.00;98815.31;5033023;28;20209;-71
2022/09/27 03:31:50;;;;;;;1.93;1.30;;;;;;;10.28;100.00;98813.66;5036936;28;20210;-71
2022/09/27 03:34:49;;;;;;;4.03;1.70;;;;;;;10.25;100.00;98806.84;5034111;28;20684;-70
2022/09/27 03:37:18;;;;;;;1.30;1.20;;;;;;;10.24;100.00;98807.78;5035832;28;20268;-71
2022/09/27 03:39:44;;;;;;;2.40;1.20;;;;;;;10.24;100.00;98805.16;5038995;28;20210;-71
2022/09/27 03:42:11;;;;;;;1.60;1.40;;;;;;;10.21;100.00;98807.94;5031656;28;20226;-72
2022/09/27 03:44:42;;;;;;;2.60;1.57;;;;;;;10.18;100.00;98806.34;5034829;28;20825;-71
2022/09/27 03:47:09;;;;;;;3.33;1.67;;;;;;;10.16;100.00;98804.72;5035559;28;20234;-71
2022/09/27 03:49:36;;;;;;;3.00;1.37;;;;;;;10.14;100.00;98798.78;5037262;28;20205;-71
2022/09/27 03:52:02;;;;;;;2.37;1.50;;;;;;;10.11;100.00;98798.91;5037101;28;20244;-71
2022/09/27 03:54:30;;;;;;;1.60;1.40;;;;;;;10.09;100.00;98795.56;5034124;28;20677;-71
2022/09/27 03:56:56;;;;;;;2.30;1.40;;;;;;;10.10;100.00;98789.44;5037619;28;20254;-71
2022/09/27 03:59:23;;;;;;;3.70;1.47;;;;;;;10.12;100.00;98795.41;5038771;28;20201;-71
2022/09/27 04:02:09;;;;;;;1.93;1.33;;;;;;;10.11;100.00;98785.91;5040101;28;20255;-71
2022/09/27 04:04:58;;;;;;;1.40;1.20;;;;;;;10.11;100.00;98786.72;5037755;28;20241;-72
2022/09/27 04:07:26;;;;;;;2.37;1.57;;;;;;;10.04;100.00;98783.63;5033253;28;20729;-71
2022/09/27 04:09:54;;;;;;;3.57;1.37;;;;;;;10.04;100.00;98774.97;5031349;28;20202;-71
2022/09/27 04:12:20;;;;;;;1.70;1.30;;;;;;;10.03;100.00;98775.91;5035660;28;20218;-72
2022/09/27 04:14:46;;;;;;;1.40;1.30;;;;;;;10.02;100.00;98772.44;5036090;28;20508;-71
2022/09/27 04:17:41;;;;;;;2.33;1.40;;;;;;;10.02;100.00;98771.63;5016354;28;20237;-70
2022/09/27 04:20:31;;;;;;;2.03;1.50;;;;;;;10.00;100.00;98770.84;5039138;28;20197;-72
2022/09/27 04:22:58;;;;;;;2.00;1.37;;;;;;;9.99;100.00;98770.03;5034319;28;20279;-71
2022/09/27 04:25:25;;;;;;;2.03;1.30;;;;;;;9.97;100.00;98765.81;5034516;28;20729;-71
2022/09/27 04:27:55;;;;;;;1.50;1.40;;;;;;;9.95;100.00;98760.69;5016817;28;20647;-71
2022/09/27 04:30:23;;;;;;;1.57;1.40;;;;;;;9.95;100.00;98757.25;5033507;28;20216;-71
2022/09/27 04:33:13;;;;;;;2.10;1.57;;;;;;;9.96;100.00;98764.97;5032893;28;20206;-71
2022/09/27 04:39:08;;;;;;;2.33;1.50;;;;;;;9.95;100.00;98760.69;5039900;28;20271;-70
2022/09/27 04:41:38;;;;;;;2.73;1.67;;;;;;;9.96;100.00;98762.38;5057478;28;20229;-71
2022/09/27 04:44:05;;;;;;;1.20;1.10;;;;;;;9.97;100.00;98771.00;5037547;28;20235;-71
2022/09/27 04:46:32;;;;;;;2.67;1.77;;;;;;;9.97;100.00;98764.06;5033409;28;20224;-71
2022/09/27 04:49:00;;;;;;;2.00;1.53;;;;;;;9.99;100.00;98769.16;5028712;28;20211;-71
2022/09/27 04:51:28;;;;;;;2.53;1.30;;;;;;;9.97;100.00;98761.47;5026405;28;20245;-71
2022/09/27 04:53:55;;;;;;;2.33;1.60;;;;;;;9.98;100.00;98767.50;5026466;28;21221;-71
2022/09/27 04:56:23;;;;;;;2.33;1.40;;;;;;;9.95;100.00;98771.09;5044325;28;20234;-70
2022/09/27 04:58:52;;;;;;;3.00;1.60;;;;;;;9.93;100.00;98767.72;5044792;28;20206;-71
2022/09/27 05:01:19;;;;;;;3.07;1.80;;;;;;;9.95;100.00;98765.06;5019528;28;21121;-71
2022/09/27 05:04:04;;;;;;;1.50;1.13;;;;;;;9.97;100.00;98768.41;5029017;28;20229;-71
2022/09/27 05:06:31;;;;;;;1.93;1.50;;;;;;;9.97;100.00;98763.19;5026903;28;20813;-72
2022/09/27 05:09:05;;;;;;;1.50;1.40;;;;;;;9.99;100.00;98758.75;5044505;28;20267;-70
2022/09/27 05:11:36;;;;;;;2.63;1.60;;;;;;;9.99;100.00;98772.63;5029464;28;20547;-70
2022/09/27 05:14:17;;;;;;;2.10;1.70;;;;;;;9.97;100.00;98766.66;5032935;28;20213;-71
2022/09/27 05:17:07;;;;;;;2.70;1.53;;;;;;;9.97;100.00;98763.19;5045041;28;20227;-70
2022/09/27 05:20:06;;;;;;;1.90;1.60;;;;;;;9.94;100.00;98758.19;5015712;28;20221;-71
2022/09/27 05:22:40;;;;;;;2.60;1.80;;;;;;;9.92;100.00;98760.88;5034173;28;20609;-70
2022/09/27 05:25:07;;;;;;;1.60;1.50;;;;;;;9.91;100.00;98759.16;5030043;28;20222;-70
2022/09/27 05:27:34;;;;;;;3.30;2.83;;;;;;;9.88;100.00;98761.94;5031101;28;22255;-69
2022/09/27 05:30:03;;;;;;;5.00;3.13;;;;;;;9.89;100.00;98761.00;5024881;28;20721;-70
2022/09/27 05:32:40;;;;;;;8.13;4.27;;;;;;;9.91;100.00;98756.56;5043427;28;20208;-71
2022/09/27 05:35:34;;;;;;;8.20;4.77;;;;;;;9.94;100.00;98758.19;5033717;28;20678;-71
2022/09/27 05:38:01;;;;;;;4.90;4.43;;;;;;;9.98;100.00;98762.28;5036433;28;20231;-71
2022/09/27 05:40:30;;;;;;;6.30;4.20;;;;;;;10.00;100.00;98768.25;5031089;28;20203;-71
2022/09/27 05:42:57;;;;;;;5.33;3.23;;;;;;;10.03;100.00;98761.13;5035462;28;20430;-71
2022/09/27 05:45:25;;;;;;;2.60;2.40;;;;;;;10.03;100.00;98761.13;5034405;28;20228;-71
2022/09/27 05:47:57;;;;;;;3.60;3.10;;;;;;;10.05;100.00;98764.47;5036288;28;20226;-71
2022/09/27 05:50:25;;;;;;;4.03;2.50;;;;;;;10.07;100.00;98761.78;5047812;28;20302;-71
2022/09/27 05:52:52;;;;;;;3.03;2.00;;;;;;;10.04;100.00;98757.59;5033368;28;20207;-71
2022/09/27 05:55:20;;;;;;;2.70;2.50;;;;;;;10.05;100.00;98753.22;5048480;28;20210;-71
2022/09/27 05:57:58;;;;;;;2.50;1.97;;;;;;;10.04;100.00;98767.16;5034444;28;20215;-70
2022/09/27 06:00:31;;;;;;;5.70;2.20;;;;;;;10.05;100.00;98761.03;5044622;28;20305;-71
2022/09/27 06:03:01;;;;;;;3.33;2.70;;;;;;;10.05;100.00;98761.88;5036680;28;20206;-71
2022/09/27 06:05:46;;;;;;;2.37;2.17;;;;;;;10.10;100.00;98760.81;5034164;28;20224;-71
2022/09/27 06:08:36;;;;;;;2.20;2.00;;;;;;;10.13;100.00;98766.69;5037819;28;20203;-70
2022/09/27 06:11:06;;;;;;;4.40;2.47;;;;;;;10.12;100.00;98758.94;5035137;28;20679;-69
2022/09/27 06:13:35;;;;;;;3.87;2.40;;;;;;;10.14;100.00;98763.13;5031965;28;20205;-71
2022/09/27 06:16:03;;;;;;;2.80;2.50;;;;;;;10.13;100.00;98760.63;5031640;28;21355;-70
2022/09/27 06:18:29;;;;;;;5.57;2.67;;;;;;;10.08;100.00;98757.41;5031950;28;20194;-71
2022/09/27 06:20:59;;;;;;;4.00;2.50;;;;;;;10.09;100.00;98765.16;5030720;28;20338;-72
2022/09/27 06:23:25;;;;;;;2.63;2.20;;;;;;;10.07;100.00;98760.97;5026099;28;20218;-70
2022/09/27 06:25:54;;;;;;;3.43;2.43;;;;;;;10.10;100.00;98759.03;5026156;28;20273;-70
2022/09/27 06:28:34;;;;;;;2.63;2.40;;;;;;;10.09;100.00;98754.72;5033549;28;20212;-70
2022/09/27 06:31:07;;;;;;;2.43;2.13;;;;;;;10.09;100.00;98767.75;5035454;28;20206;-70
2022/09/27 06:33:46;;;;;;;3.93;2.50;;;;;;;10.09;100.00;98752.13;5030684;28;20198;-70
2022/09/27 06:36:14;;;;;;;3.03;2.60;;;;;;;10.10;100.00;98761.63;5028129;28;20261;-70
2022/09/27 06:38:41;;;;;;;3.40;2.63;;;;;;;10.07;100.00;98760.97;5034927;28;20295;-70
2022/09/27 06:41:14;;;;;;;4.60;2.60;;;;;;;10.12;100.00;98758.94;5031389;28;20210;-69
2022/09/27 06:43:52;;;;;;;3.13;2.53;;;;;;;10.07;100.00;98755.75;5033662;28;20223;-72
2022/09/27 06:46:46;;;;;;;5.00;2.90;;;;;;;10.12;100.00;98758.94;5032740;28;20337;-71
2022/09/27 06:49:30;;;;;;;3.80;2.77;;;;;;;10.12;100.00;98761.56;5039673;28;20253;-71
2022/09/27 06:51:57;;;;;;;4.43;3.60;;;;;;;10.12;100.00;98753.75;5032708;28;20201;-71
2022/09/27 06:54:23;;;;;;;4.73;2.87;;;;;;;10.09;100.00;98751.31;5028297;28;20199;-71
2022/09/27 06:56:50;;;;;;;4.17;3.10;;;;;;;10.12;100.00;98756.34;5029261;28;20797;-71
2022/09/27 07:02:21;;;;;;;5.40;3.13;;;;;;;10.20;100.00;98762.81;5026340;28;20224;-72
2022/09/27 07:05:11;;;;;;;4.23;3.50;;;;;;;10.24;100.00;98759.13;5025163;28;20255;-70
2022/09/27 07:07:52;;;;;;;4.70;3.70;;;;;;;10.23;100.00;98762.63;5035970;28;20703;-71
2022/09/27 07:10:19;;;;;;;4.40;3.20;;;;;;;10.28;100.00;98762.41;5048150;28;20265;-71
2022/09/27 07:12:47;;;;;;;3.63;2.90;;;;;;;10.29;100.00;98768.44;5032077;28;20207;-69
2022/09/27 07:15:15;;;;;;;4.73;3.30;;;;;;;10.31;100.00;98764.88;5032943;28;20206;-71
2022/09/27 07:17:43;;;;;;;4.10;2.80;;;;;;;10.36;100.00;98770.69;5035152;28;20225;-70
2022/09/27 07:20:10;;;;;;;3.87;3.03;;;;;;;10.38;100.00;98768.81;5030000;28;20210;-71
2022/09/27 07:22:40;;;;;;;3.43;2.93;;;;;;;10.40;100.00;98773.94;5036511;28;20226;-71
2022/09/27 07:25:08;;;;;;;6.57;4.00;;;;;;;10.36;100.00;98768.06;5035426;28;20214;-71
2022/09/27 07:27:34;;;;;;;6.97;4.50;;;;;;;10.40;100.00;98771.34;5032641;28;20574;-71
2022/09/27 07:30:01;;;;;;;5.60;3.90;;;;;;;10.40;100.00;98764.38;5047458;28;20203;-71
2022/09/27 07:32:28;;;;;;;4.40;3.30;;;;;;;10.39;100.00;98773.09;5032010;28;20317;-71
2022/09/27 07:34:55;;;;;;;5.43;3.23;;;;;;;10.42;100.00;98774.69;5024398;28;20627;-71
2022/09/27 07:37:22;;;;;;;4.00;3.20;;;;;;;10.41;100.00;98773.00;5031264;28;20724;-71
2022/09/27 07:39:49;;;;;;;4.90;3.30;;;;;;;10.40;100.00;98769.56;5034140;28;20492;-71
2022/09/27 07:42:15;;;;;;;4.60;3.30;;;;;;;10.40;100.00;98772.19;5036984;28;20968;-71
2022/09/27 07:44:45;;;;;;;3.63;3.13;;;;;;;10.41;100.00;98768.66;5052368;28;20245;-72
2022/09/27 07:47:29;;;;;;;5.17;3.57;;;;;;;10.41;100.00;98763.44;5037151;28;20219;-70
2022/09/27 07:50:10;;;;;;;5.97;3.53;;;;;;;10.45;100.00;98758.06;5031353;28;20732;-72
2022/09/27 07:52:58;;;;;;;4.60;3.90;;;;;;;10.52;100.00;98756.81;5038875;28;20191;-71
2022/09/27 07:55:36;;;;;;;7.27;4.67;;;;;;;10.59;100.00;98753.78;5038297;28;20307;-71
2022/09/27 07:58:10;;;;;;;5.70;4.57;;;;;;;10.70;100.00;98755.75;5033015;28;20225;-71
2022/09/27 08:00:38;;;;;;;8.37;7.13;;;;;;;10.85;100.00;98759.25;5033069;28;20229;-71
2022/09/27 08:03:06;;;;;;;7.90;6.93;;;;;;;10.94;100.00;98758.75;5026625;28;20199;-71
2022/09/27 08:05:35;;;;;;;8.60;7.33;;;;;;;10.99;100.00;98758.47;5048667;28;20240;-72
2022/09/27 08:08:02;;;;;;;8.33;4.70;;;;;;;11.13;100.00;98763.75;5033303;23;20804;-69
2022/09/27 08:10:30;;;;;;;5.57;4.43;;;;;;;11.21;100.00;98760.69;5025203;28;20287;-70
2022/09/27 08:12:57;;;;;;;5.23;4.30;;;;;;;11.26;100.00;98770.88;5020384;28;20192;-69
2022/09/27 08:15:24;;;;;;;8.70;5.07;;;;;;;11.26;100.00;98761.25;5008321;28;20242;-69
2022/09/27 08:17:52;;;;;;;5.33;4.27;;;;;;;11.30;100.00;98760.16;5002266;28;20673;-70
2022/09/27 08:20:29;;;;;;;5.13;4.13;;;;;;;11.37;100.00;98769.28;5007874;28;20931;-69
2022/09/27 08:23:25;;;;;;;4.73;3.83;;;;;;;11.44;100.00;98766.34;5000847;28;20227;-70
2022/09/27 08:26:06;;;;;;;4.37;3.80;;;;;;;11.45;100.00;98761.03;5000095;28;20212;-68
2022/09/27 08:28:48;;;;;;;5.97;4.50;;;;;;;11.52;100.00;98764.09;5005012;28;20636;-68
2022/09/27 08:31:20;;;;;;;6.63;4.23;;;;;;;11.58;100.00;98757.69;5005249;28;20682;-70
2022/09/27 08:33:49;;;;;;;4.67;3.93;;;;;;;11.69;100.00;98761.31;4998393;28;20540;-70
2022/09/27 08:36:15;;;;;;;4.53;3.80;;;;;;;11.74;100.00;98759.25;5002172;28;20563;-69
2022/09/27 08:38:43;;;;;;;5.50;4.03;;;;;;;11.82;100.00;98745.75;5001924;28;20649;-70
2022/09/27 08:41:21;;;;;;;4.57;4.07;;;;;;;11.92;100.00;98748.66;5010362;28;20290;-70
2022/09/27 08:44:07;;;;;;;5.60;4.00;;;;;;;11.97;100.00;98746.59;5001153;28;20225;-69
2022/09/27 08:46:47;;;;;;;4.83;4.03;;;;;;;12.11;100.00;98754.41;4995595;28;20321;-70
2022/09/27 08:49:21;;;;;;;4.57;3.37;;;;;;;12.17;100.00;98753.22;5003152;28;20201;-69
2022/09/27 08:51:52;;;;;;;4.80;4.07;;;;;;;12.20;100.00;98758.22;5002491;28;20215;-72
2022/09/27 08:54:24;;;;;;;4.43;3.77;;;;;;;12.25;100.00;98765.78;5006071;28;20227;-68
2022/09/27 08:56:53;;;;;;;3.87;3.00;;;;;;;12.33;100.00;98768.78;5006477;28;20755;-69
2022/09/27 08:59:22;;;;;;;6.83;4.37;;;;;;;12.41;100.00;98769.13;5018168;28;20208;-68
2022/09/27 09:01:52;;;;;;;6.10;3.97;;;;;;;12.45;100.00;98769.75;5002610;28;20239;-69
2022/09/27 09:04:34;;;;;;;3.63;3.20;;;;;;;12.46;100.00;98774.91;5006351;28;20222;-70
2022/09/27 09:07:12;;;;;;;3.80;3.00;;;;;;;12.49;100.00;98774.72;5005512;28;20611;-70
2022/09/27 09:09:51;;;;;;;4.43;3.50;;;;;;;12.56;100.00;98762.09;5001909;28;20206;-71
2022/09/27 09:12:47;;;;;;;3.80;3.40;;;;;;;12.56;100.00;98761.22;5021054;28;20210;-68
2022/09/27 09:15:54;;;;;;;5.20;3.33;;;;;;;12.55;100.00;98760.41;5014972;28;20209;-68
2022/09/27 09:18:49;;;;;;;4.63;3.43;;;;;;;12.71;100.00;98762.03;5004383;28;20214;-69
2022/09/27 09:21:48;;;;;;;3.43;3.00;;;;;;;12.75;100.00;98763.50;5010629;28;20696;-69
2022/09/27 09:24:25;;;;;;;4.70;3.20;;;;;;;12.78;100.00;98758.09;5024151;28;20309;-69
2022/09/27 09:27:01;;;;;;;3.43;2.90;;;;;;;12.83;100.00;98762.06;5019168;28;20219;-69
2022/09/27 09:29:42;;;;;;;2.70;2.50;;;;;;;12.83;100.00;98761.25;5004052;28;20488;-70
2022/09/27 09:32:20;;;;;;;4.27;3.10;;;;;;;12.74;100.00;98764.47;5000598;28;20200;-68
2022/09/27 09:34:52;;;;;;;3.23;2.33;;;;;;;12.76;100.00;98767.81;4996688;28;20273;-68
2022/09/27 09:37:23;;;;;;;3.43;2.80;;;;;;;12.75;100.00;98768.75;5006704;28;20204;-69
2022/09/27 09:39:56;;;;;;;3.17;2.60;;;;;;;12.78;100.00;98765.94;5018392;28;20307;-69
2022/09/27 09:42:28;;;;;;;7.03;3.07;;;;;;;12.89;100.00;98766.06;5004933;28;20206;-69
2022/09/27 09:44:59;;;;;;;2.90;2.40;;;;;;;12.89;100.00;98758.22;5009641;28;20246;-70
2022/09/27 09:47:36;;;;;;;5.80;2.17;;;;;;;13.00;100.00;98754.94;5003176;28;20254;-70
2022/09/27 09:50:15;;;;;;;2.90;1.97;;;;;;;12.93;100.00;98764.09;5019796;28;20207;-68
2022/09/27 09:52:47;;;;;;;2.10;1.87;;;;;;;13.01;100.00;98761.81;5007729;28;20214;-69
2022/09/27 09:55:19;;;;;;;3.67;1.77;;;;;;;12.98;100.00;98755.03;5003841;28;20211;-68
2022/09/27 09:58:00;;;;;;;2.00;1.80;;;;;;;12.94;100.00;98761.38;5004140;28;20690;-71
2022/09/27 10:00:30;;;;;;;2.10;1.87;;;;;;;12.96;100.00;98750.81;5001778;28;20291;-69
2022/09/27 10:02:59;;;;;;;1.50;1.40;;;;;;;13.05;100.00;98751.06;5000137;28;20208;-70
2022/09/27 10:05:28;;;;;;;1.60;1.50;;;;;;;13.12;100.00;98751.50;5002346;28;20215;-69
2022/09/27 10:08:04;;;;;;;1.90;1.63;;;;;;;13.22;100.00;98754.31;4994273;28;20595;-69
2022/09/27 10:10:31;;;;;;;2.00;1.70;;;;;;;13.29;100.00;98754.75;4992587;28;20517;-69
2022/09/27 10:13:22;;;;;;;2.00;1.80;;;;;;;13.23;100.00;98756.00;4997406;28;20463;-70
2022/09/27 10:16:01;;;;;;;2.07;1.87;;;;;;;13.23;100.00;98751.59;5003276;28;20200;-68
2022/09/27 10:18:29;;;;;;;1.63;1.53;;;;;;;13.30;100.00;98744.19;5003805;28;20202;-70
2022/09/27 10:20:59;;;;;;;1.60;1.50;;;;;;;13.39;100.00;98746.22;4999341;28;20220;-70
2022/09/27 10:23:27;;;;;;;2.37;2.10;;;;;;;13.50;100.00;98742.88;5003771;28;20664;-70
2022/09/27 10:26:20;;;;;;;1.90;1.80;;;;;;;13.60;100.00;98736.06;4998091;28;20209;-70
2022/09/27 10:28:51;;;;;;;1.93;1.73;;;;;;;13.66;100.00;98741.81;5002383;28;20673;-69
2022/09/27 10:31:23;;;;;;;2.30;2.10;;;;;;;13.74;100.00;98739.53;5004590;28;20200;-69
2022/09/27 10:34:04;;;;;;;2.20;1.70;;;;;;;13.88;100.00;98735.91;5002318;28;20227;-68
2022/09/27 10:36:37;;;;;;;1.63;1.53;;;;;;;14.08;100.00;98724.88;5010113;28;20651;-69
2022/09/27 10:39:07;;;;;;;2.70;1.47;;;;;;;14.16;100.00;98727.81;5002552;28;20196;-69
2022/09/27 10:41:41;;;;;;;1.40;1.30;;;;;;;14.31;100.00;98730.28;5000461;28;20672;-72
2022/09/27 10:44:26;;;;;;;1.83;1.33;;;;;;;14.39;100.00;98731.41;4999668;28;20223;-69
2022/09/27 10:47:07;;;;;;;2.30;1.40;;;;;;;14.56;100.00;98724.94;4994805;28;20825;-70
2022/09/27 10:49:51;;;;;;;2.10;1.70;;;;;;;14.47;100.00;98727.38;5005480;28;20774;-68
2022/09/27 10:52:38;;;;;;;6.37;3.93;;;;;;;14.26;100.00;98738.47;4999769;28;20303;-70
2022/09/27 10:55:24;;;;;;;5.90;3.10;;;;;;;13.98;100.00;98731.72;5018070;28;20214;-72
2022/09/27 10:57:55;;;;;;;3.57;2.27;;;;;;;13.70;100.00;98741.50;5002593;28;20196;-69
2022/09/27 11:00:27;;;;;;;1.87;1.60;;;;;;;13.64;100.00;98740.13;5005241;28;20204;-69
2022/09/27 11:02:56;;;;;;;2.57;1.73;;;;;;;13.40;100.00;98737.44;4999687;28;20218;-69
2022/09/27 11:05:32;;;;;;;1.50;1.40;;;;;;;13.12;100.00;98722.72;5004720;28;20227;-68
2022/09/27 11:08:02;;;;;;;1.90;1.60;;;;;;;12.93;100.00;98717.88;4991126;28;20496;-69
2022/09/27 11:11:02;;;;;;;8.23;3.50;;;;;;;12.67;100.00;98725.63;5001068;28;20367;-69
2022/09/27 11:13:31;;;;;;;3.70;1.60;;;;;;;12.61;100.00;98736.50;5018164;28;20609;-68
2022/09/27 11:16:21;;;;;;;1.30;1.20;;;;;;;12.43;100.00;98737.66;5001957;28;20200;-69
2022/09/27 11:18:55;;;;;;;1.90;1.27;;;;;;;12.40;100.00;98735.22;4998061;28;20207;-68
2022/09/27 11:21:31;;;;;;;2.60;2.17;;;;;;;12.42;100.00;98736.84;5020873;28;20227;-71
2022/09/27 11:24:11;;;;;;;3.93;2.70;;;;;;;12.37;100.00;98741.50;5002331;28;20643;-68
2022/09/27 11:26:50;;;;;;;2.03;1.77;;;;;;;12.41;100.00;98731.69;5013955;28;20224;-69
2022/09/27 11:29:27;;;;;;;1.97;1.23;;;;;;;12.48;100.00;98736.41;5006117;28;20210;-70
2022/09/27 11:32:29;;;;;;;1.00;1.00;;;;;;;12.57;100.00;98727.16;5021545;28;20284;-70
2022/09/27 11:35:26;;;;;;;1.77;1.40;;;;;;;12.72;100.00;98732.31;4999469;28;20251;-67
2022/09/27 11:38:00;;;;;;;1.40;1.07;;;;;;;12.84;100.00;98729.78;5003347;28;20211;-68
2022/09/27 11:40:43;;;;;;;3.40;2.37;;;;;;;12.88;100.00;98730.41;5005980;28;20203;-71
2022/09/27 11:43:27;;;;;;;14.83;8.27;;;;;;;12.88;100.00;98733.84;5002700;28;20253;-68
2022/09/27 11:46:06;;;;;;;1.83;1.70;;;;;;;12.93;100.00;98730.94;5006233;28;20238;-68
2022/09/27 11:48:54;;;;;;;2.37;1.77;;;;;;;13.03;100.00;98737.25;4996089;28;20211;-68
2022/09/27 11:51:39;;;;;;;3.73;2.40;;;;;;;13.07;100.00;98737.88;4997605;28;20207;-69
2022/09/27 11:54:21;;;;;;;3.37;2.03;;;;;;;12.97;100.00;98737.63;5011470;28;20214;-68
2022/09/27 11:56:55;;;;;;;6.33;3.30;;;;;;;12.96;100.00;98735.94;5027133;28;20281;-70
2022/09/27 12:00:07;;;;;;;5.00;2.77;;;;;;;12.83;100.00;98741.16;5005529;28;20663;-68
2022/09/27 12:03:00;;;;;;;2.30;1.30;;;;;;;12.72;100.00;98746.25;5015220;28;20211;-70
2022/09/27 12:05:36;;;;;;;1.10;0.93;;;;;;;12.43;100.00;98754.16;5019279;28;20198;-70
2022/09/27 12:08:21;;;;;;;2.00;1.30;;;;;;;12.07;100.00;98754.72;4992784;28;20883;-68